createdAt,value
2018-02-17T00:01:26.339Z,90.10
2018-02-17T00:03:52.431Z,90.10
2018-02-17T00:06:18.478Z,90.10
2018-02-17T00:08:44.509Z,90.10
2018-02-17T00:11:11.294Z,90.30
2018-02-17T00:13:37.350Z,90.20
2018-02-17T00:16:03.439Z,90.30
2018-02-17T00:18:29.455Z,90.30
2018-02-17T00:20:55.522Z,90.50
2018-02-17T00:23:21.575Z,90.50
2018-02-17T00:25:48.393Z,90.50
2018-02-17T00:28:14.492Z,90.40
2018-02-17T00:30:40.518Z,90.50
2018-02-17T00:33:06.535Z,90.40
2018-02-17T00:35:32.618Z,90.40
2018-02-17T00:37:59.400Z,90.30
2018-02-17T00:40:25.428Z,90.30
2018-02-17T00:42:51.537Z,90.30
2018-02-17T00:45:17.576Z,90.40
2018-02-17T00:47:43.603Z,90.20
2018-02-17T00:50:09.615Z,90.30
2018-02-17T00:52:35.680Z,90.20
2018-02-17T00:55:01.730Z,90.30
2018-02-17T00:57:28.674Z,90.20
2018-02-17T00:59:55.528Z,90.00
2018-02-17T01:02:22.483Z,89.80
2018-02-17T01:04:49.263Z,89.70
2018-02-17T01:07:15.315Z,89.60
2018-02-17T01:09:41.366Z,89.10
2018-02-17T01:12:08.147Z,87.60
2018-02-17T01:14:35.466Z,87.50
2018-02-17T01:17:02.271Z,87.90
2018-02-17T01:19:28.307Z,87.80
2018-02-17T01:21:54.383Z,87.70
2018-02-17T01:24:20.781Z,87.20
2018-02-17T01:26:46.898Z,87.00
2018-02-17T01:29:13.876Z,87.00
2018-02-17T01:31:39.867Z,86.10
2018-02-17T01:34:05.907Z,86.30
2018-02-17T01:36:33.032Z,86.50
2018-02-17T01:38:59.838Z,86.40
2018-02-17T01:41:25.851Z,86.30
2018-02-17T01:43:51.946Z,85.60
2018-02-17T01:46:18.719Z,84.70
2018-02-17T01:48:44.772Z,84.50
2018-02-17T01:51:10.789Z,84.80
2018-02-17T01:53:36.817Z,84.80
2018-02-17T01:56:02.869Z,84.70
2018-02-17T01:58:28.993Z,84.30
2018-02-17T02:00:55.082Z,84.50
2018-02-17T02:03:21.114Z,85.20
2018-02-17T02:05:47.139Z,85.30
2018-02-17T02:08:13.155Z,84.80
2018-02-17T02:10:39.181Z,85.00
2018-02-17T02:13:05.235Z,84.90
2018-02-17T02:15:31.295Z,84.80
2018-02-17T02:17:57.318Z,84.80
2018-02-17T02:20:23.341Z,85.10
2018-02-17T02:22:49.402Z,85.00
2018-02-17T02:25:15.422Z,85.10
2018-02-17T02:27:41.647Z,84.80
2018-02-17T02:30:07.676Z,84.50
2018-02-17T02:32:33.698Z,84.90
2018-02-17T02:34:59.752Z,85.00
2018-02-17T02:37:25.783Z,84.70
2018-02-17T02:39:51.836Z,84.80
2018-02-17T02:42:17.864Z,84.00
2018-02-17T02:44:43.919Z,84.10
2018-02-17T02:47:09.962Z,84.30
2018-02-17T02:49:35.989Z,84.60
2018-02-17T02:52:02.056Z,84.40
2018-02-17T02:54:28.460Z,84.30
2018-02-17T02:56:55.206Z,84.10
2018-02-17T02:59:21.967Z,83.90
2018-02-17T03:01:47.999Z,83.80
2018-02-17T03:04:14.012Z,83.40
2018-02-17T03:06:40.080Z,83.60
2018-02-17T03:09:06.091Z,83.90
2018-02-17T03:11:32.095Z,84.20
2018-02-17T03:13:58.087Z,84.60
2018-02-17T03:16:24.820Z,84.40
2018-02-17T03:18:51.594Z,84.50
2018-02-17T03:21:17.618Z,84.30
2018-02-17T03:23:43.590Z,84.70
2018-02-17T03:26:09.635Z,85.30
2018-02-17T03:28:36.396Z,85.00
2018-02-17T03:31:02.487Z,84.80
2018-02-17T03:33:28.574Z,84.30
2018-02-17T03:35:54.772Z,84.70
2018-02-17T03:38:20.868Z,84.60
2018-02-17T03:40:46.874Z,84.60
2018-02-17T03:43:12.887Z,85.30
2018-02-17T03:45:38.909Z,86.10
2018-02-17T03:48:04.929Z,85.40
2018-02-17T03:50:30.957Z,85.10
2018-02-17T03:52:56.979Z,85.00
2018-02-17T03:55:23.126Z,85.30
2018-02-17T03:57:49.147Z,85.50
2018-02-17T04:00:15.191Z,85.30
2018-02-17T04:02:41.943Z,85.40
2018-02-17T04:05:08.020Z,85.30
2018-02-17T04:07:34.097Z,85.70
2018-02-17T04:10:00.133Z,85.70
2018-02-17T04:12:26.175Z,86.10
2018-02-17T04:14:52.970Z,86.50
2018-02-17T04:17:19.004Z,86.40
2018-02-17T04:19:45.018Z,86.40
2018-02-17T04:22:11.042Z,85.80
2018-02-17T04:24:37.060Z,85.70
2018-02-17T04:27:03.100Z,85.70
2018-02-17T04:29:29.161Z,86.10
2018-02-17T04:31:55.916Z,85.90
2018-02-17T04:34:21.894Z,85.80
2018-02-17T04:36:48.664Z,85.90
2018-02-17T04:39:14.742Z,85.90
2018-02-17T04:41:45.684Z,85.60
2018-02-17T04:44:26.689Z,85.80
2018-02-17T04:47:01.851Z,86.00
2018-02-17T04:49:46.929Z,85.80
2018-02-17T04:52:15.492Z,85.60
2018-02-17T04:54:47.719Z,85.60
2018-02-17T04:57:34.766Z,86.20
2018-02-17T05:00:03.708Z,86.40
2018-02-17T05:02:49.721Z,86.90
2018-02-17T05:05:18.815Z,86.90
2018-02-17T05:07:59.808Z,86.40
2018-02-17T05:10:25.839Z,86.40
2018-02-17T05:12:51.919Z,86.00
2018-02-17T05:15:17.940Z,86.00
2018-02-17T05:17:49.983Z,86.10
2018-02-17T05:20:22.954Z,86.40
2018-02-17T05:22:49.067Z,86.30
2018-02-17T05:25:33.982Z,87.60
2018-02-17T05:28:00.022Z,86.70
2018-02-17T05:30:44.047Z,87.00
2018-02-17T05:33:25.121Z,87.10
2018-02-17T05:36:06.909Z,87.30
2018-02-17T05:38:35.904Z,86.90
2018-02-17T05:41:02.032Z,86.50
2018-02-17T05:43:28.050Z,86.20
2018-02-17T05:45:54.958Z,85.80
2018-02-17T05:48:21.860Z,86.20
2018-02-17T05:50:47.890Z,86.70
2018-02-17T05:53:13.942Z,86.60
2018-02-17T05:55:39.984Z,86.90
2018-02-17T05:58:05.982Z,86.60
2018-02-17T06:00:32.104Z,86.70
2018-02-17T06:02:58.155Z,86.60
2018-02-17T06:05:24.983Z,87.10
2018-02-17T06:07:51.006Z,87.00
2018-02-17T06:10:17.066Z,86.80
2018-02-17T06:12:43.096Z,87.20
2018-02-17T06:15:09.674Z,87.10
2018-02-17T06:17:35.712Z,86.50
2018-02-17T06:20:01.731Z,86.50
2018-02-17T06:22:27.806Z,86.80
2018-02-17T06:24:53.884Z,87.60
2018-02-17T06:27:20.687Z,87.10
2018-02-17T06:29:46.744Z,87.00
2018-02-17T06:32:12.827Z,86.90
2018-02-17T06:34:38.866Z,86.90
2018-02-17T06:37:05.014Z,87.10
2018-02-17T06:39:33.670Z,87.10
2018-02-17T06:41:59.736Z,87.00
2018-02-17T06:44:27.958Z,87.10
2018-02-17T06:46:57.298Z,87.10
2018-02-17T06:49:23.512Z,86.70
2018-02-17T06:51:49.584Z,86.70
2018-02-17T06:54:15.635Z,86.90
2018-02-17T06:56:41.942Z,86.90
2018-02-17T06:59:08.107Z,86.70
2018-02-17T07:01:34.315Z,86.30
2018-02-17T07:04:00.557Z,86.40
2018-02-17T07:06:26.590Z,86.60
2018-02-17T07:08:54.364Z,86.40
2018-02-17T07:11:23.228Z,86.30
2018-02-17T07:13:50.002Z,86.00
2018-02-17T07:16:16.061Z,85.90
2018-02-17T07:18:42.124Z,86.10
2018-02-17T07:21:08.247Z,86.10
2018-02-17T07:23:34.398Z,86.40
2018-02-17T07:26:01.208Z,85.80
2018-02-17T07:28:27.397Z,85.80
2018-02-17T07:30:53.593Z,85.80
2018-02-17T07:33:19.650Z,85.80
2018-02-17T07:35:46.873Z,85.60
2018-02-17T07:38:12.975Z,85.70
2018-02-17T07:40:39.047Z,85.70
2018-02-17T07:43:05.104Z,86.10
2018-02-17T07:45:31.436Z,86.30
2018-02-17T07:47:57.499Z,85.80
2018-02-17T07:50:23.584Z,85.50
2018-02-17T07:52:49.888Z,85.40
2018-02-17T07:55:16.515Z,85.60
2018-02-17T07:57:43.320Z,85.70
2018-02-17T08:00:09.326Z,85.60
2018-02-17T08:02:43.859Z,86.10
2018-02-17T08:05:09.922Z,86.00
2018-02-17T08:07:35.940Z,85.50
2018-02-17T08:10:02.695Z,85.70
2018-02-17T08:12:28.689Z,85.50
2018-02-17T08:14:54.768Z,85.00
2018-02-17T08:17:20.855Z,84.80
2018-02-17T08:19:47.609Z,85.30
2018-02-17T08:22:13.623Z,85.30
2018-02-17T08:24:40.446Z,84.80
2018-02-17T08:27:06.554Z,84.70
2018-02-17T08:29:32.566Z,84.80
2018-02-17T08:31:58.593Z,84.60
2018-02-17T08:34:24.674Z,84.10
2018-02-17T08:36:50.664Z,84.30
2018-02-17T08:39:16.696Z,84.00
2018-02-17T08:41:43.445Z,83.10
2018-02-17T08:44:10.185Z,83.30
2018-02-17T08:46:37.037Z,83.80
2018-02-17T08:49:03.110Z,83.80
2018-02-17T08:51:29.182Z,83.40
2018-02-17T08:53:55.694Z,83.50
2018-02-17T08:56:21.815Z,83.30
2018-02-17T08:58:49.049Z,83.30
2018-02-17T09:01:15.068Z,83.00
2018-02-17T09:03:41.469Z,98.90
2018-02-17T09:13:32.533Z,73.10
2018-02-17T09:15:59.034Z,46.30
2018-02-17T09:18:26.072Z,43.60
2018-02-17T09:20:52.874Z,46.10
2018-02-17T09:23:19.144Z,46.00
2018-02-17T09:25:45.371Z,48.80
2018-02-17T09:28:12.461Z,55.20
2018-02-17T09:30:38.569Z,55.00
2018-02-17T09:33:04.744Z,57.50
2018-02-17T09:35:30.873Z,60.50
2018-02-17T09:37:57.115Z,62.20
2018-02-17T09:40:23.399Z,64.10
2018-02-17T09:42:49.420Z,66.40
2018-02-17T09:45:15.484Z,67.50
2018-02-17T09:47:42.273Z,69.70
2018-02-17T09:50:08.265Z,69.60
2018-02-17T09:52:35.063Z,70.40
2018-02-17T09:55:01.387Z,70.30
2018-02-17T09:57:27.421Z,71.10
2018-02-17T09:59:53.434Z,70.80
2018-02-17T10:02:19.612Z,70.90
2018-02-17T10:04:46.379Z,69.80
2018-02-17T10:07:12.405Z,69.70
2018-02-17T10:09:38.395Z,70.00
2018-02-17T10:12:05.160Z,72.60
2018-02-17T10:14:31.156Z,72.50
2018-02-17T10:16:57.950Z,70.50
2018-02-17T10:19:23.949Z,70.40
2018-02-17T10:21:49.981Z,70.30
2018-02-17T10:24:15.961Z,72.50
2018-02-17T10:26:42.019Z,69.80
2018-02-17T10:29:08.072Z,69.40
2018-02-17T10:31:34.095Z,69.40
2018-02-17T10:34:00.157Z,69.70
2018-02-17T10:36:26.943Z,70.00
2018-02-17T10:38:53.033Z,69.90
2018-02-17T10:41:19.051Z,70.20
2018-02-17T10:43:45.858Z,70.50
2018-02-17T10:46:11.939Z,70.40
2018-02-17T10:48:37.989Z,69.60
2018-02-17T10:51:04.037Z,69.00
2018-02-17T10:53:30.799Z,69.00
2018-02-17T10:55:57.622Z,68.30
2018-02-17T10:58:23.684Z,68.30
2018-02-17T11:00:49.696Z,68.00
2018-02-17T11:03:16.442Z,67.90
2018-02-17T11:05:42.724Z,67.80
2018-02-17T11:08:08.793Z,67.80
2018-02-17T11:10:34.824Z,67.20
2018-02-17T11:13:00.863Z,67.40
2018-02-17T11:15:27.112Z,66.80
2018-02-17T11:17:53.433Z,67.00
2018-02-17T11:20:19.721Z,67.10
2018-02-17T11:22:46.532Z,67.40
2018-02-17T11:25:12.684Z,67.30
2018-02-17T11:27:39.611Z,67.50
2018-02-17T11:30:06.515Z,67.80
2018-02-17T11:32:32.612Z,67.70
2018-02-17T11:34:58.793Z,67.80
2018-02-17T11:37:25.341Z,68.50
2018-02-17T11:39:52.266Z,68.50
2018-02-17T11:42:18.482Z,68.30
2018-02-17T11:44:44.550Z,68.30
2018-02-17T11:47:10.916Z,67.80
2018-02-17T11:49:37.323Z,68.20
2018-02-17T11:52:04.609Z,68.50
2018-02-17T11:54:30.736Z,68.40
2018-02-17T11:56:58.265Z,67.50
2018-02-17T11:59:24.639Z,66.80
2018-02-17T12:01:50.906Z,67.30
2018-02-17T12:04:17.803Z,67.40
2018-02-17T12:06:43.920Z,67.40
2018-02-17T12:09:10.795Z,68.00
2018-02-17T12:11:37.119Z,67.90
2018-02-17T12:14:03.212Z,67.50
2018-02-17T12:16:29.331Z,68.40
2018-02-17T12:18:55.744Z,68.20
2018-02-17T12:21:22.148Z,67.70
2018-02-17T12:23:48.974Z,67.10
2018-02-17T12:26:15.156Z,67.00
2018-02-17T12:28:41.306Z,66.60
2018-02-17T12:31:07.424Z,66.80
2018-02-17T12:33:33.760Z,67.10
2018-02-17T12:35:59.838Z,67.10
2018-02-17T12:38:26.710Z,68.30
2018-02-17T12:40:52.764Z,68.30
2018-02-17T12:43:18.968Z,68.70
2018-02-17T12:45:45.081Z,68.80
2018-02-17T12:48:11.174Z,68.70
2018-02-17T12:50:37.986Z,70.70
2018-02-17T12:53:04.042Z,70.50
2018-02-17T12:55:30.810Z,69.80
2018-02-17T12:57:57.027Z,69.80
2018-02-17T13:00:23.219Z,69.40
2018-02-17T13:02:49.607Z,69.00
2018-02-17T13:05:15.676Z,69.60
2018-02-17T13:07:42.576Z,69.40
2018-02-17T13:10:09.228Z,69.30
2018-02-17T13:12:35.512Z,69.20
2018-02-17T13:15:02.424Z,68.80
2018-02-17T13:17:28.472Z,68.70
2018-02-17T13:19:55.349Z,68.90
2018-02-17T13:22:21.753Z,68.80
2018-02-17T13:24:47.876Z,69.10
2018-02-17T13:27:14.900Z,69.20
2018-02-17T13:29:41.068Z,69.20
2018-02-17T13:32:07.394Z,69.00
2018-02-17T13:34:33.809Z,68.90
2018-02-17T13:36:59.898Z,68.40
2018-02-17T13:39:26.003Z,69.00
2018-02-17T13:41:52.092Z,68.70
2018-02-17T13:44:18.937Z,72.50
2018-02-17T13:46:45.692Z,72.50
2018-02-17T13:49:12.022Z,72.50
2018-02-17T13:51:38.115Z,73.10
2018-02-17T13:54:04.193Z,73.20
2018-02-17T13:56:31.302Z,73.50
2018-02-17T13:58:58.110Z,73.70
2018-02-17T14:01:25.061Z,74.50
2018-02-17T14:03:51.827Z,74.90
2018-02-17T14:06:18.780Z,75.90
2018-02-17T14:08:44.828Z,75.80
2018-02-17T14:11:10.951Z,76.90
2018-02-17T14:13:37.190Z,78.10
2018-02-17T14:16:03.271Z,78.10
2018-02-17T14:18:29.432Z,78.30
2018-02-17T14:20:55.626Z,79.10
2018-02-17T14:23:22.495Z,79.40
2018-02-17T14:25:48.529Z,79.20
2018-02-17T14:28:14.614Z,78.90
2018-02-17T14:30:41.499Z,78.80
2018-02-17T14:33:07.552Z,78.60
2018-02-17T14:35:33.635Z,78.70
2018-02-17T14:37:59.708Z,78.70
2018-02-17T14:40:25.749Z,80.20
2018-02-17T14:42:51.807Z,82.20
2018-02-17T14:45:17.979Z,80.80
2018-02-17T14:47:44.881Z,77.60
2018-02-17T14:50:10.945Z,77.50
2018-02-17T14:52:37.077Z,77.60
2018-02-17T14:55:04.043Z,78.50
2018-02-17T14:57:30.797Z,78.30
2018-02-17T14:59:56.991Z,78.30
2018-02-17T15:02:23.112Z,78.90
2018-02-17T15:04:49.189Z,78.90
2018-02-17T15:07:15.317Z,79.20
2018-02-17T15:09:41.460Z,79.60
2018-02-17T15:12:07.619Z,80.10
2018-02-17T15:14:33.704Z,80.20
2018-02-17T15:17:00.469Z,81.60
2018-02-17T15:19:26.582Z,81.50
2018-02-17T15:21:52.658Z,81.60
2018-02-17T15:24:18.738Z,82.00
2018-02-17T15:26:44.849Z,82.50
2018-02-17T15:29:11.692Z,82.60
2018-02-17T15:31:37.708Z,82.50
2018-02-17T15:34:04.514Z,83.40
2018-02-17T15:36:30.735Z,83.40
2018-02-17T15:38:56.794Z,84.80
2018-02-17T15:41:23.690Z,84.70
2018-02-17T15:43:49.781Z,84.60
2018-02-17T15:46:15.816Z,85.00
2018-02-17T15:48:41.932Z,84.80
2018-02-17T15:51:08.793Z,85.60
2018-02-17T15:53:34.879Z,86.20
2018-02-17T15:56:01.795Z,85.80
2018-02-17T15:58:27.869Z,85.70
2018-02-17T16:00:53.941Z,85.50
2018-02-17T16:03:20.008Z,86.10
2018-02-17T16:05:46.855Z,86.30
2018-02-17T16:08:13.709Z,86.60
2018-02-17T16:10:39.878Z,86.60
2018-02-17T16:13:05.937Z,86.90
2018-02-17T16:15:33.051Z,86.70
2018-02-17T16:17:59.112Z,86.70
2018-02-17T16:20:25.930Z,87.20
2018-02-17T16:22:51.979Z,87.10
2018-02-17T16:25:18.825Z,87.70
2018-02-17T16:27:45.597Z,87.60
2018-02-17T16:30:12.425Z,87.40
2018-02-17T16:32:38.543Z,87.30
2018-02-17T16:35:04.766Z,87.60
2018-02-17T16:37:30.831Z,87.10
2018-02-17T16:39:56.884Z,87.30
2018-02-17T16:42:22.916Z,87.70
2018-02-17T16:44:48.964Z,87.90
2018-02-17T16:47:16.099Z,88.80
2018-02-17T16:49:42.202Z,88.70
2018-02-17T16:52:08.232Z,88.70
2018-02-17T16:54:34.682Z,88.80
2018-02-17T16:57:00.804Z,89.20
2018-02-17T16:59:26.948Z,89.30
2018-02-17T17:01:53.012Z,89.10
2018-02-17T17:04:19.469Z,89.10
2018-02-17T17:06:45.645Z,88.70
2018-02-17T17:09:11.726Z,88.90
2018-02-17T17:11:38.788Z,89.40
2018-02-17T17:14:04.898Z,89.40
2018-02-17T17:16:32.604Z,89.60
2018-02-17T17:18:58.700Z,89.20
2018-02-17T17:21:24.828Z,90.10
2018-02-17T17:23:51.686Z,89.60
2018-02-17T17:26:17.786Z,89.60
2018-02-17T17:28:44.597Z,89.80
2018-02-17T17:31:10.748Z,89.70
2018-02-17T17:33:37.542Z,90.30
2018-02-17T17:36:03.778Z,90.20
2018-02-17T17:38:29.859Z,92.10
2018-02-17T17:40:56.741Z,90.60
2018-02-17T17:43:23.023Z,90.90
2018-02-17T17:45:49.932Z,90.00
2018-02-17T17:48:16.905Z,90.10
2018-02-17T17:50:42.987Z,90.10
2018-02-17T17:53:09.269Z,90.10
2018-02-17T17:55:36.139Z,90.20
2018-02-17T17:58:02.254Z,90.20
2018-02-17T18:00:28.663Z,90.30
2018-02-17T18:02:54.746Z,90.40
2018-02-17T18:05:20.851Z,90.40
2018-02-17T18:07:46.894Z,90.60
2018-02-17T18:10:13.083Z,90.50
2018-02-17T18:12:39.138Z,90.60
2018-02-17T18:15:05.204Z,90.70
2018-02-17T18:17:32.144Z,90.90
2018-02-17T18:19:58.957Z,90.80
2018-02-17T18:22:25.353Z,90.80
2018-02-17T18:24:51.558Z,90.80
2018-02-17T18:27:18.774Z,90.80
2018-02-17T18:29:44.875Z,90.80
2018-02-17T18:32:11.186Z,90.70
2018-02-17T18:34:37.300Z,90.90
2018-02-17T18:37:04.088Z,90.90
2018-02-17T18:39:30.332Z,91.20
2018-02-17T18:41:56.461Z,90.90
2018-02-17T18:44:23.336Z,90.90
2018-02-17T18:46:49.500Z,90.90
2018-02-17T18:49:15.824Z,90.80
2018-02-17T18:51:41.900Z,90.80
2018-02-17T18:54:08.713Z,90.80
2018-02-17T18:56:34.790Z,90.80
2018-02-17T18:59:01.598Z,90.70
2018-02-17T19:01:27.712Z,90.70
2018-02-17T19:03:53.803Z,90.60
2018-02-17T19:06:19.917Z,90.50
2018-02-17T19:08:46.047Z,90.50
2018-02-17T19:11:12.144Z,90.40
2018-02-17T19:13:38.966Z,90.40
2018-02-17T19:16:05.777Z,90.50
2018-02-17T19:18:32.646Z,90.50
2018-02-17T19:20:59.543Z,90.70
2018-02-17T19:23:25.582Z,90.40
2018-02-17T19:25:51.904Z,90.50
2018-02-17T19:28:18.711Z,90.60
2018-02-17T19:30:45.889Z,90.50
2018-02-17T19:33:12.199Z,90.60
2018-02-17T19:35:38.295Z,90.40
2018-02-17T19:38:04.394Z,90.60
2018-02-17T19:40:30.996Z,90.90
2018-02-17T19:42:57.346Z,90.90
2018-02-17T19:45:23.401Z,87.90
2018-02-17T19:47:49.527Z,83.80
2018-02-17T19:50:15.650Z,86.00
2018-02-17T19:52:41.787Z,87.10
2018-02-17T19:55:07.934Z,88.90
2018-02-17T19:57:34.081Z,89.50
2018-02-17T20:00:00.907Z,90.00
2018-02-17T20:02:27.239Z,90.00
2018-02-17T20:04:53.326Z,90.00
2018-02-17T20:07:19.493Z,90.10
2018-02-17T20:09:45.729Z,90.10
2018-02-17T20:12:12.554Z,90.00
2018-02-17T20:14:38.636Z,90.00
2018-02-17T20:17:04.728Z,89.90
2018-02-17T20:19:31.616Z,90.00
2018-02-17T20:21:57.897Z,90.00
2018-02-17T20:24:24.739Z,90.30
2018-02-17T20:26:51.626Z,90.70
2018-02-17T20:29:18.801Z,90.40
2018-02-17T20:31:44.857Z,90.50
2018-02-17T20:34:11.451Z,90.50
2018-02-17T20:36:37.577Z,90.40
2018-02-17T20:39:03.857Z,90.60
2018-02-17T20:41:30.699Z,90.60
2018-02-17T20:43:57.788Z,90.50
2018-02-17T20:46:23.975Z,90.40
2018-02-17T20:48:50.782Z,90.60
2018-02-17T20:51:16.950Z,90.50
2018-02-17T20:53:43.702Z,90.70
2018-02-17T20:56:09.804Z,90.70
2018-02-17T20:58:35.855Z,90.70
2018-02-17T21:01:01.858Z,90.70
2018-02-17T21:03:28.756Z,90.70
2018-02-17T21:05:54.913Z,90.70
2018-02-17T21:08:21.779Z,90.70
2018-02-17T21:10:47.977Z,90.60
2018-02-17T21:13:14.095Z,90.60
2018-02-17T21:15:40.124Z,91.00
2018-02-17T21:18:06.323Z,90.80
2018-02-17T21:20:32.459Z,90.90
2018-02-17T21:22:58.533Z,91.00
2018-02-17T21:25:25.279Z,91.10
2018-02-17T21:27:51.478Z,91.10
2018-02-17T21:30:17.522Z,91.20
2018-02-17T21:32:43.628Z,91.10
2018-02-17T21:35:09.672Z,91.20
2018-02-17T21:37:35.753Z,91.20
2018-02-17T21:40:03.289Z,91.20
2018-02-17T21:42:29.336Z,91.20
2018-02-17T21:44:55.424Z,91.40
2018-02-17T21:47:21.510Z,91.40
2018-02-17T21:49:47.578Z,91.40
2018-02-17T21:52:13.643Z,91.60
2018-02-17T21:54:39.824Z,91.80
2018-02-17T21:57:05.882Z,91.80
2018-02-17T21:59:32.032Z,91.80
2018-02-17T22:01:58.878Z,92.40
2018-02-17T22:04:25.650Z,92.10
2018-02-17T22:06:51.754Z,92.00
2018-02-17T22:09:18.610Z,92.20
2018-02-17T22:11:44.643Z,92.20
2018-02-17T22:14:10.743Z,92.20
2018-02-17T22:16:37.523Z,92.30
2018-02-17T22:19:03.703Z,92.30
2018-02-17T22:21:30.520Z,92.20
2018-02-17T22:23:56.861Z,92.10
2018-02-17T22:26:22.918Z,92.00
2018-02-17T22:28:48.973Z,92.10
2018-02-17T22:31:15.804Z,92.40
2018-02-17T22:33:41.943Z,92.40
2018-02-17T22:36:08.738Z,92.40
2018-02-17T22:38:35.674Z,92.30
2018-02-17T22:41:02.511Z,92.40
2018-02-17T22:43:28.608Z,92.40
2018-02-17T22:45:54.679Z,92.60
2018-02-17T22:48:20.833Z,92.70
2018-02-17T22:50:46.822Z,92.50
2018-02-17T22:53:12.839Z,92.60
2018-02-17T22:55:39.002Z,92.90
2018-02-17T22:58:05.033Z,93.20
2018-02-17T23:00:31.804Z,93.40
2018-02-17T23:02:57.935Z,93.30
2018-02-17T23:05:24.053Z,93.10
2018-02-17T23:07:50.144Z,92.90
2018-02-17T23:10:16.965Z,92.90
2018-02-17T23:12:43.065Z,92.90
2018-02-17T23:15:09.147Z,93.00
2018-02-17T23:17:35.938Z,92.80
2018-02-17T23:20:01.978Z,92.80
2018-02-17T23:22:28.036Z,92.80
2018-02-17T23:24:54.838Z,92.80
2018-02-17T23:27:20.861Z,92.80
2018-02-17T23:29:47.083Z,92.60
2018-02-17T23:32:13.113Z,92.50
2018-02-17T23:34:39.141Z,92.40
2018-02-17T23:37:05.226Z,92.40
2018-02-17T23:39:31.260Z,92.20
2018-02-17T23:41:57.317Z,92.30
2018-02-17T23:44:24.141Z,92.30
2018-02-17T23:46:50.251Z,92.30
2018-02-17T23:49:17.128Z,92.30
2018-02-17T23:51:43.173Z,92.30
2018-02-17T23:54:09.259Z,92.40
2018-02-17T23:56:35.376Z,92.80
2018-02-17T23:59:02.196Z,92.80
